Time;durP1;ratioP1;P1;durP2;ratioP2;P2;SDS_P1;SDS_P2;PMS_P1;PMS_P2;Temp;Humidity;BMP_temperature;BMP_pressure;BME280_temperature;BME280_humidity;BME280_pressure;Samples;Min_cycle;Max_cycle;Signal;HPM_P1;HPM_P2
2024/01/31 00:01:18;;;;;;;14.73;6.10;;;;;;;6.69;88.98;102448.19;5043134;28;20045;-66
2024/01/31 00:03:44;;;;;;;11.63;5.70;;;;;;;6.73;89.26;102450.28;5030935;28;20045;-64
2024/01/31 00:06:13;;;;;;;11.95;5.55;;;;;;;6.80;89.18;102455.25;5029464;28;20059;-65
2024/01/31 00:08:38;;;;;;;14.60;5.88;;;;;;;6.88;89.07;102454.16;5030542;28;20451;-65
2024/01/31 00:11:05;;;;;;;14.47;5.37;;;;;;;6.96;88.76;102453.09;5030555;28;20061;-64
2024/01/31 00:13:30;;;;;;;14.80;6.75;;;;;;;7.05;88.35;102451.25;5030921;28;20060;-65
2024/01/31 00:15:56;;;;;;;12.03;5.77;;;;;;;7.10;88.02;102448.97;5030111;28;20474;-65
2024/01/31 00:18:21;;;;;;;17.75;6.18;;;;;;;7.15;88.09;102456.44;5030716;28;20112;-66
2024/01/31 00:20:46;;;;;;;16.87;6.20;;;;;;;7.21;88.20;102456.00;5032317;28;20076;-66
2024/01/31 00:25:42;;;;;;;10.88;4.95;;;;;;;7.29;88.10;102455.88;5064159;27;20369;-64
2024/01/31 00:28:07;;;;;;;11.23;5.50;;;;;;;7.31;88.63;102462.13;5064248;28;20037;-64
2024/01/31 00:30:33;;;;;;;11.40;4.87;;;;;;;7.43;88.33;102456.97;5063953;28;20121;-65
2024/01/31 00:32:58;;;;;;;13.60;5.93;;;;;;;7.55;88.07;102454.41;5064267;28;20377;-66
2024/01/31 00:35:23;;;;;;;15.03;6.03;;;;;;;7.62;87.87;102459.34;5063945;28;20036;-65
2024/01/31 00:37:49;;;;;;;15.17;5.27;;;;;;;7.67;87.77;102458.94;5064307;28;20025;-65
2024/01/31 00:40:14;;;;;;;11.63;5.20;;;;;;;7.73;87.44;102461.13;5063751;28;20036;-65
2024/01/31 00:42:41;;;;;;;10.83;4.90;;;;;;;7.76;87.39;102442.94;5064117;28;20295;-65
2024/01/31 00:45:07;;;;;;;11.82;5.35;;;;;;;7.76;87.46;102449.13;5063265;28;20047;-65
2024/01/31 00:49:51;;;;;;;11.75;4.70;;;;;;;7.86;87.25;102458.66;5087649;28;20367;-67
2024/01/31 00:52:17;;;;;;;13.07;5.03;;;;;;;7.90;87.41;102446.66;5067364;28;20040;-65
2024/01/31 00:57:03;;;;;;;10.52;4.63;;;;;;;7.98;87.18;102456.09;5067499;28;20358;-65
2024/01/31 00:59:28;;;;;;;11.75;4.80;;;;;;;7.99;87.13;102450.91;5052345;28;20474;-65
2024/01/31 01:01:54;;;;;;;10.80;4.10;;;;;;;8.03;86.90;102439.88;5032037;28;20045;-64
2024/01/31 01:04:19;;;;;;;10.35;4.22;;;;;;;8.11;87.03;102445.72;5027637;28;20441;-65
2024/01/31 01:09:15;;;;;;;10.00;4.10;;;;;;;8.18;86.27;102441.06;5055477;28;20383;-65
2024/01/31 01:11:40;;;;;;;10.27;4.00;;;;;;;8.24;86.20;102446.75;5027552;28;20033;-66
2024/01/31 01:14:06;;;;;;;10.77;4.07;;;;;;;8.32;86.08;102442.16;5032068;28;20029;-63
2024/01/31 01:16:31;;;;;;;10.50;4.10;;;;;;;8.41;85.79;102442.84;5027136;28;20037;-65
2024/01/31 01:18:57;;;;;;;8.67;3.27;;;;;;;8.44;85.04;102440.44;5027570;28;20045;-67
2024/01/31 01:21:22;;;;;;;8.67;3.50;;;;;;;8.48;85.29;102437.25;5028118;28;20029;-63
2024/01/31 01:23:47;;;;;;;7.75;3.17;;;;;;;8.49;84.86;102435.50;5027156;28;20458;-63
2024/01/31 01:26:13;;;;;;;12.10;3.23;;;;;;;8.54;84.69;102435.06;5026866;28;20108;-63
2024/01/31 01:28:38;;;;;;;8.63;2.77;;;;;;;8.58;84.24;102442.38;5027333;28;20636;-64
2024/01/31 01:31:04;;;;;;;6.60;2.80;;;;;;;8.66;83.98;102443.91;5026681;28;20138;-65
2024/01/31 01:33:29;;;;;;;7.78;2.90;;;;;;;8.73;83.66;102439.09;5027663;28;20053;-64
2024/01/31 01:35:55;;;;;;;14.43;3.10;;;;;;;8.76;83.09;102440.25;5027344;28;20116;-65
2024/01/31 01:38:20;;;;;;;8.47;2.63;;;;;;;8.83;82.74;102439.00;5031449;28;20478;-64
2024/01/31 01:40:45;;;;;;;6.10;2.50;;;;;;;8.87;82.45;102439.34;5026854;28;20079;-64
2024/01/31 01:43:18;;;;;;;6.20;2.20;;;;;;;8.86;82.18;102440.13;5027046;28;21043;-64
2024/01/31 01:45:44;;;;;;;5.68;1.77;;;;;;;8.89;81.94;102437.72;5026438;28;20117;-64
2024/01/31 01:48:15;;;;;;;7.95;2.25;;;;;;;8.93;81.54;102431.84;5026005;28;20152;-64
2024/01/31 01:50:42;;;;;;;6.00;1.90;;;;;;;8.96;81.55;102423.28;5026756;28;20041;-64
2024/01/31 01:53:08;;;;;;;6.65;1.90;;;;;;;8.97;81.36;102431.31;5025203;28;20494;-65
2024/01/31 01:55:34;;;;;;;6.20;1.90;;;;;;;9.04;81.04;102432.66;5026602;28;20045;-64
2024/01/31 01:58:00;;;;;;;6.05;2.03;;;;;;;9.07;80.77;102433.81;5034568;28;20504;-64
2024/01/31 02:00:26;;;;;;;5.13;1.77;;;;;;;9.13;80.20;102432.44;5027560;28;20069;-64
2024/01/31 02:02:51;;;;;;;5.87;1.90;;;;;;;9.20;79.58;102437.34;5029930;28;20281;-65
2024/01/31 02:05:17;;;;;;;6.18;1.65;;;;;;;9.22;79.38;102444.56;5026394;28;20540;-66
2024/01/31 02:07:43;;;;;;;5.63;2.03;;;;;;;9.27;79.14;102453.75;5026278;28;20053;-64
2024/01/31 02:10:09;;;;;;;7.90;2.25;;;;;;;9.31;78.58;102445.25;5028532;28;20137;-64
2024/01/31 02:12:34;;;;;;;5.40;2.20;;;;;;;9.38;78.20;102457.13;5032012;28;20121;-64
2024/01/31 02:15:00;;;;;;;5.55;2.20;;;;;;;9.36;77.74;102464.03;5026037;28;20052;-64
2024/01/31 02:17:25;;;;;;;10.57;1.90;;;;;;;9.38;77.81;102463.31;5026714;28;20038;-64
2024/01/31 02:19:51;;;;;;;5.53;2.00;;;;;;;9.45;77.66;102475.25;5018676;28;20025;-65
2024/01/31 02:22:18;;;;;;;6.43;2.20;;;;;;;9.46;77.36;102471.81;5021275;28;20455;-65
2024/01/31 02:24:43;;;;;;;7.15;2.00;;;;;;;9.43;77.41;102450.47;5012985;28;20034;-64
2024/01/31 02:29:39;;;;;;;9.85;2.55;;;;;;;9.31;78.08;102447.88;5104530;27;20367;-65
2024/01/31 02:32:06;;;;;;;6.47;2.53;;;;;;;9.22;78.67;102449.84;5087127;28;20037;-64
2024/01/31 02:34:31;;;;;;;5.88;2.20;;;;;;;9.22;79.02;102454.19;5087165;28;20043;-66
2024/01/31 02:36:57;;;;;;;8.40;2.28;;;;;;;9.24;78.64;102452.56;5086870;28;20045;-65
2024/01/31 02:39:22;;;;;;;7.33;2.37;;;;;;;9.28;78.50;102458.19;5089886;28;20043;-64
2024/01/31 02:41:47;;;;;;;5.33;1.73;;;;;;;9.29;77.84;102451.19;5083127;28;20024;-64
2024/01/31 02:44:13;;;;;;;5.40;1.90;;;;;;;9.28;78.07;102454.63;5087149;28;20497;-64
2024/01/31 02:46:38;;;;;;;5.30;1.80;;;;;;;9.26;78.35;102451.91;5086957;28;20032;-64
2024/01/31 02:49:04;;;;;;;5.27;1.70;;;;;;;9.24;78.40;102444.66;5086856;28;20040;-65
2024/01/31 02:51:29;;;;;;;6.93;1.93;;;;;;;9.19;78.53;102444.31;5087036;28;20107;-64
2024/01/31 02:56:11;;;;;;;7.20;1.85;;;;;;;9.14;78.93;102444.78;5093697;27;21405;-63
2024/01/31 02:58:36;;;;;;;4.67;1.47;;;;;;;9.12;78.96;102454.31;5101570;28;20032;-63
2024/01/31 03:01:06;;;;;;;5.65;1.52;;;;;;;9.07;79.21;102457.53;5074412;28;20171;-64
2024/01/31 03:03:31;;;;;;;4.53;1.50;;;;;;;9.06;79.52;102463.63;5066185;28;20401;-64
2024/01/31 03:05:57;;;;;;;4.47;1.27;;;;;;;9.03;79.43;102455.47;5068734;28;20120;-64
2024/01/31 03:08:22;;;;;;;4.33;1.23;;;;;;;8.99;79.66;102461.31;5069148;28;20029;-64
2024/01/31 03:10:47;;;;;;;4.10;1.30;;;;;;;8.97;79.80;102462.94;5066951;28;20039;-63
2024/01/31 03:13:14;;;;;;;5.57;1.70;;;;;;;8.92;79.93;102458.13;5075481;28;20129;-63
2024/01/31 03:15:39;;;;;;;6.97;1.20;;;;;;;8.93;79.85;102466.13;5066433;28;20067;-64
2024/01/31 03:18:04;;;;;;;6.23;1.30;;;;;;;8.91;80.23;102467.75;5066783;28;20162;-64
2024/01/31 03:20:30;;;;;;;5.07;1.10;;;;;;;8.88;80.56;102467.50;5068042;28;20470;-63
2024/01/31 03:25:19;;;;;;;4.32;1.05;;;;;;;8.84;80.61;102473.34;5107541;27;20871;-65
2024/01/31 03:27:45;;;;;;;6.13;1.10;;;;;;;8.84;80.58;102475.06;5107700;28;20112;-71
2024/01/31 03:30:10;;;;;;;3.40;0.90;;;;;;;8.85;80.60;102482.16;5104848;28;20036;-65
2024/01/31 03:32:36;;;;;;;3.67;0.90;;;;;;;8.80;80.70;102486.16;5103205;28;20024;-65
2024/01/31 03:35:01;;;;;;;4.17;1.07;;;;;;;8.81;80.67;102493.28;5087183;28;20028;-66
2024/01/31 03:37:27;;;;;;;4.82;1.10;;;;;;;8.81;80.91;102503.81;5088411;28;20585;-62
2024/01/31 03:39:52;;;;;;;4.40;1.00;;;;;;;8.80;80.81;102513.44;5093804;27;20764;-66
2024/01/31 03:42:17;;;;;;;3.63;0.93;;;;;;;8.74;81.40;102506.78;5095271;28;20067;-66
2024/01/31 03:44:43;;;;;;;5.50;0.90;;;;;;;8.65;82.29;102520.16;5087072;28;20046;-65
2024/01/31 03:47:08;;;;;;;4.00;1.10;;;;;;;8.56;83.05;102512.50;5086654;28;20448;-66
2024/01/31 03:49:33;;;;;;;4.22;1.20;;;;;;;8.50;83.61;102519.91;5086949;28;20036;-65
2024/01/31 03:51:59;;;;;;;3.23;0.63;;;;;;;8.47;83.81;102513.50;5084523;28;20042;-66
2024/01/31 03:54:24;;;;;;;4.33;0.90;;;;;;;8.38;83.91;102510.16;5094863;28;20036;-65
2024/01/31 03:56:50;;;;;;;3.70;0.90;;;;;;;8.33;84.55;102511.50;5090590;28;20449;-64
2024/01/31 03:59:15;;;;;;;3.80;0.90;;;;;;;8.27;84.71;102522.44;5094983;28;20140;-65
2024/01/31 04:01:41;;;;;;;3.90;0.80;;;;;;;8.22;84.87;102530.00;5094554;28;20032;-65
2024/01/31 04:04:06;;;;;;;5.00;0.60;;;;;;;8.22;84.75;102527.34;5086851;28;20124;-65
2024/01/31 04:06:31;;;;;;;2.77;0.47;;;;;;;8.21;85.02;102517.63;5086251;28;20556;-66
2024/01/31 04:08:57;;;;;;;3.20;0.70;;;;;;;8.16;84.98;102532.13;5086544;28;20111;-67
2024/01/31 04:11:22;;;;;;;3.00;0.60;;;;;;;8.14;85.59;102530.19;5086206;28;20777;-66
2024/01/31 04:13:47;;;;;;;2.70;0.50;;;;;;;8.13;85.08;102533.59;5086814;28;20150;-66
2024/01/31 04:16:16;;;;;;;2.47;0.43;;;;;;;8.10;85.56;102536.91;5086521;28;20524;-65
2024/01/31 04:18:42;;;;;;;3.72;0.57;;;;;;;8.11;85.18;102538.75;5084693;28;20032;-66
2024/01/31 04:21:07;;;;;;;3.40;0.53;;;;;;;8.11;84.45;102536.09;5087301;28;20041;-65
2024/01/31 04:23:32;;;;;;;2.30;0.43;;;;;;;8.10;84.19;102539.53;5086594;28;20563;-65
2024/01/31 04:25:58;;;;;;;3.60;0.53;;;;;;;8.11;84.18;102543.09;5084754;28;20047;-65
2024/01/31 04:28:24;;;;;;;2.47;0.40;;;;;;;8.10;83.97;102547.44;5086547;28;20753;-65
2024/01/31 04:30:49;;;;;;;3.47;0.60;;;;;;;8.11;83.77;102543.09;5094193;28;20035;-65
2024/01/31 04:33:14;;;;;;;3.27;1.13;;;;;;;8.06;84.15;102545.34;5086623;28;20051;-65
2024/01/31 04:35:40;;;;;;;2.43;0.50;;;;;;;8.05;84.08;102551.41;5077769;28;20485;-66
2024/01/31 04:38:05;;;;;;;2.10;0.53;;;;;;;8.04;83.70;102548.69;5081428;28;20099;-65
2024/01/31 04:40:31;;;;;;;2.63;0.43;;;;;;;8.03;83.57;102545.13;5072031;28;20377;-65
2024/01/31 04:42:56;;;;;;;2.00;0.40;;;;;;;8.02;83.83;102555.53;5073080;28;20491;-66
2024/01/31 04:45:21;;;;;;;2.77;0.50;;;;;;;7.97;83.77;102549.91;5084536;28;20115;-65
2024/01/31 04:47:47;;;;;;;2.80;0.50;;;;;;;7.97;83.47;102560.41;5072612;28;20032;-65
2024/01/31 04:50:12;;;;;;;1.97;0.37;;;;;;;7.95;83.66;102547.91;5072536;28;20476;-65
2024/01/31 04:52:38;;;;;;;1.95;0.35;;;;;;;7.89;83.69;102550.09;5072498;28;20537;-67
2024/01/31 04:55:04;;;;;;;1.70;0.30;;;;;;;7.87;83.71;102559.56;5072481;28;20028;-65
2024/01/31 04:57:32;;;;;;;2.63;0.50;;;;;;;7.87;83.65;102563.09;5072493;28;20086;-66
2024/01/31 04:59:57;;;;;;;1.88;0.30;;;;;;;7.85;83.87;102563.75;5070791;28;20111;-66
2024/01/31 05:02:23;;;;;;;3.20;0.40;;;;;;;7.81;83.98;102566.16;5082677;28;20583;-65
2024/01/31 05:04:48;;;;;;;3.20;0.40;;;;;;;7.78;84.03;102571.19;5073100;28;20100;-65
2024/01/31 05:07:13;;;;;;;3.00;0.60;;;;;;;7.75;84.56;102567.38;5080492;28;20472;-65
2024/01/31 05:09:39;;;;;;;2.33;0.47;;;;;;;7.72;84.80;102561.88;5074733;28;20081;-64
2024/01/31 05:12:05;;;;;;;1.87;0.40;;;;;;;7.70;84.62;102568.69;5072654;28;20657;-68
2024/01/31 05:14:33;;;;;;;1.83;0.30;;;;;;;7.67;84.83;102555.31;5081049;28;20036;-65
2024/01/31 05:16:58;;;;;;;1.80;0.30;;;;;;;7.64;84.86;102568.22;5080328;28;20177;-67
2024/01/31 05:19:24;;;;;;;3.30;0.40;;;;;;;7.61;84.44;102567.97;5074930;28;20043;-67
2024/01/31 05:21:55;;;;;;;2.17;0.43;;;;;;;7.57;84.79;102572.06;5080135;28;20040;-67
2024/01/31 05:24:20;;;;;;;1.95;0.50;;;;;;;7.58;84.70;102573.91;5080818;28;20052;-67
2024/01/31 05:26:48;;;;;;;1.87;0.30;;;;;;;7.56;84.10;102582.44;5080936;28;20088;-66
2024/01/31 05:29:14;;;;;;;1.90;0.30;;;;;;;7.49;84.23;102578.41;5075420;28;20098;-66
2024/01/31 05:31:39;;;;;;;1.92;0.38;;;;;;;7.45;84.10;102573.66;5081633;28;20028;-66
2024/01/31 05:34:05;;;;;;;1.20;0.30;;;;;;;7.36;84.16;102575.53;5081819;28;20074;-66
2024/01/31 05:36:30;;;;;;;2.05;0.30;;;;;;;7.31;84.66;102580.41;5071591;28;20037;-68
2024/01/31 05:38:56;;;;;;;1.47;0.30;;;;;;;7.33;84.46;102586.75;5081006;28;20043;-67
2024/01/31 05:41:21;;;;;;;3.30;0.40;;;;;;;7.35;84.59;102589.50;5075401;28;20136;-66
2024/01/31 05:43:47;;;;;;;2.37;0.47;;;;;;;7.34;84.54;102588.59;5077538;28;20039;-67
2024/01/31 05:46:16;;;;;;;1.63;0.30;;;;;;;7.34;84.17;102600.81;5069354;28;20041;-67
2024/01/31 05:48:46;;;;;;;2.08;0.40;;;;;;;7.34;84.40;102606.97;5084420;28;20036;-67
2024/01/31 05:51:11;;;;;;;3.33;0.30;;;;;;;7.35;84.25;102606.16;5069615;28;20542;-66
2024/01/31 05:53:37;;;;;;;3.33;0.30;;;;;;;7.34;84.09;102606.97;5070358;28;20028;-69
2024/01/31 05:56:03;;;;;;;2.03;0.60;;;;;;;7.21;84.21;102606.72;5071101;28;20516;-66
2024/01/31 05:58:29;;;;;;;1.67;0.30;;;;;;;7.09;84.53;102610.97;5075236;28;20514;-67
2024/01/31 06:00:55;;;;;;;2.67;0.35;;;;;;;6.98;84.80;102616.09;5081507;28;20024;-67
2024/01/31 06:03:22;;;;;;;2.37;0.40;;;;;;;6.88;84.97;102619.66;5071502;28;20058;-66
2024/01/31 06:05:48;;;;;;;1.67;0.30;;;;;;;6.78;85.02;102620.56;5070614;28;20036;-65
2024/01/31 06:08:13;;;;;;;3.43;0.40;;;;;;;6.69;85.20;102627.66;5070670;28;20177;-66
2024/01/31 06:10:39;;;;;;;1.57;0.47;;;;;;;6.63;85.43;102639.34;5070804;28;20115;-66
2024/01/31 06:13:04;;;;;;;1.95;0.30;;;;;;;6.58;85.79;102640.66;5071201;28;20081;-67
2024/01/31 06:15:30;;;;;;;1.33;0.23;;;;;;;6.57;85.89;102636.16;5079159;28;20040;-66
2024/01/31 06:17:55;;;;;;;1.80;0.30;;;;;;;6.60;86.03;102641.72;5079626;28;20028;-67
2024/01/31 06:20:20;;;;;;;2.33;0.30;;;;;;;6.61;86.25;102643.56;5072887;28;20048;-66
2024/01/31 06:22:46;;;;;;;3.80;0.60;;;;;;;6.63;86.10;102655.09;5069866;28;20366;-66
2024/01/31 06:25:11;;;;;;;2.37;0.40;;;;;;;6.64;86.06;102647.34;5070127;28;20412;-67
2024/01/31 06:27:37;;;;;;;1.50;0.30;;;;;;;6.66;85.84;102652.75;5070828;28;20036;-67
2024/01/31 06:30:04;;;;;;;2.22;0.50;;;;;;;6.65;85.86;102664.03;5070139;28;20128;-65
2024/01/31 06:32:32;;;;;;;2.37;0.37;;;;;;;6.67;85.73;102666.00;5073092;28;20033;-66
2024/01/31 06:34:58;;;;;;;3.92;0.38;;;;;;;6.68;85.73;102672.16;5070278;28;20672;-67
2024/01/31 06:37:24;;;;;;;1.88;0.40;;;;;;;6.69;85.78;102667.06;5071697;28;20056;-66
2024/01/31 06:39:50;;;;;;;1.90;0.30;;;;;;;6.67;85.72;102667.69;5078008;28;20032;-66
2024/01/31 06:42:15;;;;;;;2.63;0.40;;;;;;;6.68;85.42;102675.72;5070228;28;20042;-68
2024/01/31 06:44:40;;;;;;;1.87;0.40;;;;;;;6.68;85.64;102675.72;5070303;28;20540;-67
2024/01/31 06:47:06;;;;;;;2.70;0.40;;;;;;;6.68;85.60;102680.03;5069787;28;20104;-68
2024/01/31 06:49:31;;;;;;;3.53;0.40;;;;;;;6.69;85.47;102679.28;5068419;28;20489;-68
2024/01/31 06:51:57;;;;;;;3.13;0.50;;;;;;;6.68;85.73;102680.97;5078479;28;20284;-70
2024/01/31 06:54:22;;;;;;;5.00;0.50;;;;;;;6.68;85.72;102687.91;5069906;28;20100;-67
2024/01/31 06:56:47;;;;;;;2.57;0.43;;;;;;;6.68;85.35;102691.47;5069635;28;20032;-67
2024/01/31 06:59:13;;;;;;;1.67;0.30;;;;;;;6.67;85.47;102697.50;5068678;28;20162;-66
2024/01/31 07:04:09;;;;;;;1.50;0.30;;;;;;;6.65;85.75;102703.41;5107431;27;20743;-68
2024/01/31 07:06:34;;;;;;;3.53;0.50;;;;;;;6.65;85.39;102704.34;5107425;28;20047;-68
2024/01/31 07:08:59;;;;;;;2.47;0.47;;;;;;;6.65;85.44;102695.53;5107437;28;20036;-68
2024/01/31 07:11:25;;;;;;;1.97;0.40;;;;;;;6.68;85.06;102703.69;5094621;28;20540;-66
2024/01/31 07:13:50;;;;;;;3.20;0.70;;;;;;;6.69;84.76;102701.19;5086758;28;20062;-66
2024/01/31 07:16:16;;;;;;;1.53;0.30;;;;;;;6.68;85.01;102698.44;5086176;28;20528;-67
2024/01/31 07:18:43;;;;;;;2.57;0.50;;;;;;;6.69;84.83;102706.44;5086889;28;20047;-66
2024/01/31 07:21:09;;;;;;;2.70;0.40;;;;;;;6.68;84.98;102707.22;5087894;28;20286;-67
2024/01/31 07:23:35;;;;;;;1.63;0.30;;;;;;;6.66;85.09;102711.41;5087232;28;20043;-68
2024/01/31 07:26:00;;;;;;;2.30;0.50;;;;;;;6.68;85.05;102722.06;5086427;28;20498;-68
2024/01/31 07:28:26;;;;;;;1.77;0.30;;;;;;;6.68;85.16;102722.06;5087330;28;20060;-68
2024/01/31 07:30:52;;;;;;;4.53;0.40;;;;;;;6.70;84.97;102725.75;5086735;28;20086;-65
2024/01/31 07:33:17;;;;;;;1.23;0.30;;;;;;;6.71;84.68;102730.22;5085015;28;20285;-69
2024/01/31 07:35:43;;;;;;;2.00;0.30;;;;;;;6.71;84.79;102730.22;5100147;28;20044;-66
2024/01/31 07:38:08;;;;;;;1.93;0.37;;;;;;;6.71;84.56;102735.47;5089546;28;20036;-66
2024/01/31 07:40:34;;;;;;;2.70;0.30;;;;;;;6.69;84.81;102740.59;5085216;28;20031;-67
2024/01/31 07:42:59;;;;;;;2.47;0.50;;;;;;;6.71;84.59;102743.34;5085651;28;20111;-66
2024/01/31 07:45:27;;;;;;;2.30;0.30;;;;;;;6.74;84.33;102746.25;5092346;28;20120;-66
2024/01/31 07:47:52;;;;;;;1.60;0.30;;;;;;;6.75;84.28;102759.53;5086512;28;20403;-69
2024/01/31 07:50:17;;;;;;;2.23;0.63;;;;;;;6.73;83.87;102753.19;5086517;28;20032;-67
2024/01/31 07:52:43;;;;;;;4.40;0.37;;;;;;;6.72;83.47;102753.06;5086735;28;20071;-66
2024/01/31 07:55:10;;;;;;;2.33;0.40;;;;;;;6.74;83.23;102751.50;5088321;28;20086;-68
2024/01/31 07:57:35;;;;;;;1.98;0.30;;;;;;;6.72;83.20;102747.78;5092514;28;20036;-67
2024/01/31 08:00:01;;;;;;;3.37;0.60;;;;;;;6.73;82.53;102750.56;5086048;28;20032;-67
2024/01/31 08:02:29;;;;;;;3.37;0.93;;;;;;;6.75;81.76;102754.25;5092000;28;20107;-69
2024/01/31 08:04:54;;;;;;;2.27;0.40;;;;;;;6.74;81.42;102749.78;5085731;28;20938;-67
2024/01/31 08:07:21;;;;;;;1.70;0.40;;;;;;;6.76;81.52;102757.81;5092651;28;20030;-67
2024/01/31 08:09:46;;;;;;;2.07;0.47;;;;;;;6.77;80.90;102757.94;5087020;28;20282;-68
2024/01/31 08:12:11;;;;;;;2.10;0.37;;;;;;;6.80;81.01;102759.91;5086205;28;20059;-67
2024/01/31 08:14:37;;;;;;;2.30;0.40;;;;;;;6.81;80.53;102769.59;5078126;28;20286;-69
2024/01/31 08:17:02;;;;;;;2.03;0.33;;;;;;;6.77;80.71;102768.44;5071895;28;20040;-68
2024/01/31 08:19:28;;;;;;;2.80;0.60;;;;;;;6.80;80.31;102773.06;5072670;28;20503;-66
2024/01/31 08:21:53;;;;;;;3.23;0.40;;;;;;;6.80;79.80;102775.69;5074292;28;20074;-69
2024/01/31 08:24:18;;;;;;;1.92;0.30;;;;;;;6.78;79.79;102771.97;5072963;28;20120;-67
2024/01/31 08:26:44;;;;;;;1.50;0.30;;;;;;;6.81;79.87;102775.78;5072477;28;20033;-67
2024/01/31 08:29:10;;;;;;;2.30;0.40;;;;;;;6.81;79.47;102786.28;5072466;28;20052;-66
2024/01/31 08:31:35;;;;;;;1.80;0.50;;;;;;;6.81;79.33;102780.13;5072830;28;20041;-68
2024/01/31 08:34:01;;;;;;;2.00;0.30;;;;;;;6.83;78.98;102783.81;5072422;28;20051;-67
2024/01/31 08:36:26;;;;;;;1.20;0.20;;;;;;;6.86;78.61;102784.06;5070212;28;20035;-67
2024/01/31 08:38:51;;;;;;;3.30;0.60;;;;;;;6.90;78.60;102794.09;5077450;28;20139;-68
2024/01/31 08:41:18;;;;;;;1.95;0.40;;;;;;;6.98;78.20;102800.94;5072258;28;20120;-68
2024/01/31 08:43:43;;;;;;;1.80;0.40;;;;;;;7.00;77.89;102801.06;5072769;28;20052;-66
2024/01/31 08:46:09;;;;;;;3.00;0.40;;;;;;;6.94;77.54;102802.38;5071725;28;20036;-68
2024/01/31 08:48:34;;;;;;;2.87;0.30;;;;;;;6.84;78.85;102804.97;5072635;28;20500;-66
2024/01/31 08:51:02;;;;;;;1.23;0.20;;;;;;;6.74;79.26;102804.94;5072015;28;20029;-68
2024/01/31 08:53:27;;;;;;;1.73;0.30;;;;;;;6.66;79.91;102810.31;5073048;28;20026;-67
2024/01/31 08:55:53;;;;;;;3.40;0.40;;;;;;;6.61;80.52;102809.88;5072263;28;20488;-66
2024/01/31 08:58:18;;;;;;;1.63;0.30;;;;;;;6.57;80.82;102814.72;5064247;28;20044;-68
2024/01/31 09:00:44;;;;;;;1.27;0.20;;;;;;;6.54;80.83;102810.13;5075793;28;20103;-67
2024/01/31 09:03:09;;;;;;;3.93;0.40;;;;;;;6.49;81.20;102822.84;5072901;28;20043;-67
2024/01/31 09:05:35;;;;;;;1.97;0.30;;;;;;;6.45;81.57;102814.53;5072176;28;20124;-65
2024/01/31 09:08:00;;;;;;;2.13;0.30;;;;;;;6.43;81.94;102809.16;5071778;28;20028;-71
2024/01/31 09:10:26;;;;;;;2.23;0.40;;;;;;;6.45;81.74;102804.97;5072352;28;20279;-67
2024/01/31 09:12:53;;;;;;;2.77;0.40;;;;;;;6.46;81.89;102816.41;5072213;28;20067;-66
2024/01/31 09:15:18;;;;;;;1.70;0.30;;;;;;;6.43;82.34;102817.03;5071872;28;20282;-67
2024/01/31 09:17:45;;;;;;;2.85;0.35;;;;;;;6.44;82.22;102813.63;5071824;28;20035;-67
2024/01/31 09:20:10;;;;;;;2.07;0.40;;;;;;;6.47;82.12;102819.13;5073099;28;20081;-67
2024/01/31 09:22:37;;;;;;;3.20;0.38;;;;;;;6.45;82.57;102809.31;5071612;28;20029;-66
2024/01/31 09:25:03;;;;;;;6.78;0.50;;;;;;;6.49;82.63;102820.22;5079768;28;20052;-67
2024/01/31 09:27:28;;;;;;;2.80;0.47;;;;;;;6.54;82.57;102819.69;5071390;28;20032;-68
2024/01/31 09:29:54;;;;;;;3.70;0.68;;;;;;;6.55;81.91;102813.66;5071173;28;20087;-66
2024/01/31 09:32:19;;;;;;;4.50;0.40;;;;;;;6.61;82.20;102816.84;5079772;28;20478;-68
2024/01/31 09:34:45;;;;;;;2.70;0.50;;;;;;;6.66;81.62;102812.94;5071754;28;20109;-66
2024/01/31 09:37:10;;;;;;;1.77;0.30;;;;;;;6.66;81.74;102821.69;5071509;28;20459;-67
2024/01/31 09:39:35;;;;;;;2.50;0.40;;;;;;;6.64;82.01;102819.75;5076717;28;20113;-68
2024/01/31 09:42:02;;;;;;;2.78;0.55;;;;;;;6.65;82.31;102813.72;5071469;28;20439;-67
2024/01/31 09:44:29;;;;;;;2.80;0.60;;;;;;;6.62;82.27;102818.66;5071754;28;20094;-65
2024/01/31 09:46:56;;;;;;;3.03;0.50;;;;;;;6.63;82.58;102821.44;5071400;28;20043;-67
2024/01/31 09:49:21;;;;;;;4.32;0.60;;;;;;;6.65;82.96;102826.84;5071244;28;20024;-66
2024/01/31 09:51:46;;;;;;;2.87;0.50;;;;;;;6.59;83.08;102818.41;5071558;28;20082;-67
2024/01/31 09:54:13;;;;;;;3.90;0.60;;;;;;;6.55;83.23;102817.22;5071376;28;20032;-67
2024/01/31 09:56:39;;;;;;;3.17;0.57;;;;;;;6.54;83.12;102814.44;5071124;28;20032;-68
2024/01/31 09:59:05;;;;;;;2.23;0.50;;;;;;;6.53;83.40;102818.78;5087579;28;20115;-69
2024/01/31 10:01:31;;;;;;;4.15;0.50;;;;;;;6.55;83.41;102808.41;5081078;28;20121;-67
2024/01/31 10:03:57;;;;;;;3.05;0.60;;;;;;;6.53;83.06;102810.91;5082010;28;20488;-68
2024/01/31 10:06:27;;;;;;;2.33;0.40;;;;;;;6.58;83.28;102812.22;5070525;28;20040;-69
2024/01/31 10:08:52;;;;;;;5.97;0.52;;;;;;;6.69;83.10;102806.25;5070815;28;20032;-67
2024/01/31 10:11:18;;;;;;;2.07;0.40;;;;;;;6.79;82.72;102797.47;5070231;28;20029;-68
2024/01/31 10:13:43;;;;;;;2.58;0.43;;;;;;;6.96;82.66;102791.97;5070701;28;20028;-67
2024/01/31 10:16:09;;;;;;;2.83;0.60;;;;;;;7.04;81.79;102788.34;5070276;28;20044;-66
2024/01/31 10:18:34;;;;;;;2.60;0.50;;;;;;;7.15;81.22;102776.13;5070473;28;20033;-67
2024/01/31 10:20:59;;;;;;;2.43;0.40;;;;;;;7.19;80.87;102784.41;5071448;28;20115;-67
2024/01/31 10:23:25;;;;;;;2.42;0.45;;;;;;;7.18;80.66;102790.44;5070616;28;20102;-66
2024/01/31 10:25:51;;;;;;;2.60;0.40;;;;;;;7.14;80.76;102798.88;5070112;28;20035;-66
2024/01/31 10:28:19;;;;;;;4.28;1.30;;;;;;;7.15;80.84;102795.47;5070244;28;20327;-65
2024/01/31 10:30:45;;;;;;;2.67;0.47;;;;;;;7.18;80.54;102795.72;5070323;28;20060;-65
2024/01/31 10:33:12;;;;;;;4.33;0.50;;;;;;;7.13;80.44;102799.63;5070206;28;20143;-65
2024/01/31 10:35:39;;;;;;;5.25;0.73;;;;;;;7.12;80.65;102810.00;5069832;28;20036;-67
2024/01/31 10:38:06;;;;;;;2.63;0.40;;;;;;;7.19;80.31;102815.03;5074474;28;20407;-66
2024/01/31 10:40:46;;;;;;;4.65;0.50;;;;;;;7.17;79.91;102814.88;5070233;28;20044;-63
2024/01/31 10:43:13;;;;;;;2.58;0.50;;;;;;;7.07;79.60;102811.31;5070770;28;20085;-65
2024/01/31 10:45:39;;;;;;;7.03;0.60;;;;;;;7.01;79.44;102809.06;5069734;28;20081;-65
2024/01/31 10:48:05;;;;;;;4.93;0.60;;;;;;;6.98;79.06;102819.31;5068536;28;20113;-64
2024/01/31 10:52:53;;;;;;;5.30;0.60;;;;;;;6.84;78.88;102799.72;5087773;27;20424;-66
2024/01/31 10:55:21;;;;;;;6.32;0.90;;;;;;;6.87;79.19;102807.84;5087089;28;20034;-64
2024/01/31 10:57:47;;;;;;;4.05;0.70;;;;;;;7.03;79.12;102820.66;5087717;28;20044;-65
2024/01/31 11:00:28;;;;;;;3.50;0.47;;;;;;;7.17;78.24;102822.78;5087144;28;20039;-66
2024/01/31 11:02:55;;;;;;;3.80;0.63;;;;;;;7.21;78.12;102827.50;5083501;28;20058;-66
2024/01/31 11:05:20;;;;;;;3.92;0.90;;;;;;;7.24;78.08;102812.00;5087164;28;20191;-66
2024/01/31 11:07:46;;;;;;;6.50;0.87;;;;;;;7.25;77.32;102803.31;5087437;28;20032;-66
2024/01/31 11:10:16;;;;;;;4.00;0.70;;;;;;;7.31;77.06;102784.53;5087039;28;20059;-65
2024/01/31 11:12:41;;;;;;;5.65;0.90;;;;;;;7.42;76.74;102785.47;5087300;28;20036;-66
2024/01/31 11:15:07;;;;;;;6.40;0.83;;;;;;;7.42;76.06;102781.13;5087007;28;20028;-67
2024/01/31 11:17:34;;;;;;;5.57;1.08;;;;;;;7.36;76.08;102777.97;5087444;28;20122;-66
2024/01/31 11:20:01;;;;;;;3.77;0.70;;;;;;;7.24;75.72;102774.28;5088477;28;20504;-66
2024/01/31 11:22:27;;;;;;;7.15;1.15;;;;;;;7.16;76.41;102759.53;5087044;28;20028;-67
2024/01/31 11:24:55;;;;;;;4.88;1.00;;;;;;;7.20;75.91;102767.81;5086863;28;20047;-66
2024/01/31 11:27:21;;;;;;;5.05;0.90;;;;;;;7.40;74.46;102782.69;5078547;28;20040;-66
2024/01/31 11:29:50;;;;;;;5.28;0.70;;;;;;;7.50;73.16;102780.06;5086737;28;20505;-66
2024/01/31 11:32:17;;;;;;;4.03;0.80;;;;;;;7.54;72.11;102766.41;5085545;28;20035;-66
2024/01/31 11:34:42;;;;;;;3.30;0.50;;;;;;;7.66;72.44;102764.78;5085274;28;20048;-67
2024/01/31 11:37:08;;;;;;;5.27;0.50;;;;;;;7.68;71.48;102764.94;5084449;28;20036;-67
2024/01/31 11:39:34;;;;;;;5.55;1.20;;;;;;;7.71;69.82;102784.53;5089840;28;20036;-66
2024/01/31 11:41:59;;;;;;;8.37;0.53;;;;;;;7.70;69.20;102771.22;5084800;28;20440;-67
2024/01/31 11:44:25;;;;;;;9.70;0.80;;;;;;;7.73;68.62;102763.63;5085341;28;20286;-67
2024/01/31 11:46:52;;;;;;;9.10;0.90;;;;;;;7.69;67.61;102762.44;5085359;28;20040;-67